首页
METAR-TAF:

METAR-TAF

机场 :

Wawa, 安大略省, 加拿大

纬度: 47-58N, 经度: 084-47W, 海拔: 287米

当前天气观测

该预报发布于31分钟前的11:00 UTC
风速2节,风向东北
温度 13°C
湿度 94%
气压 1016 hPa
能見度: 24.1公里
少量云层高于1100英尺
少量云层高于9000英尺

METAR: CYXZ 011100Z CCA 05002KT 15SM FEW011 FEW090 13/12 A2999 RMK SF1AC2 SF TR WND ESTD SLP164

时间: 07:31 (11:31 UTC)

预报

该预报发布于12小时和52分钟前的22:39 UTC
预报有效从31日的 22点(UTC)到 31日的 24点(UTC)
风速3节,风向多变
能見度: 10公里
散云层高于1200英尺
阴天层高于4000英尺
短暂存在
从 31日的 22点(UTC)到 31日的 24点(UTC)
能見度: 1.6公里
多云层高于800英尺
阴天层高于1500英尺, 积雨云.
雷暴, 大雨, 轻雾

TAF: CYXZ 312239Z 3122/3124 VRB03KT P6SM SCT012 OVC040 TEMPO 3122/3124 1SM +TSRA BR BKN008 OVC015CB RMK NXT FCST WILL BE ISSUED AT 011245Z

超过4000个机场的气象观测和天气预报(METAR&TAF报告)。

可查询的气象台以黄色和红色小点在地图上表示。

将鼠标移到小点上方,可查看气象台名称。

然后点击查看天气观测和预报。

如需切换地图:点击带黑十字的绿色按钮放大地图;点击带横线的绿色按钮缩小地图;或者点击绿色箭头查看邻近地区的地图。


METAR-TAF: